Time;durP1;ratioP1;P1;durP2;ratioP2;P2;SDS_P1;SDS_P2;PMS_P1;PMS_P2;Temp;Humidity;BMP_temperature;BMP_pressure;BME280_temperature;BME280_humidity;BME280_pressure;Samples;Min_cycle;Max_cycle;Signal;HPM_P1;HPM_P2
2022/09/01 00:00:50;;;;;;;2.20;1.52;;;;;;;13.68;73.49;99117.09;4236762;27;20538;-72
2022/09/01 00:02:51;;;;;;;3.17;1.33;;;;;;;13.61;73.87;99119.78;4236463;27;20039;-71
2022/09/01 00:04:57;;;;;;;3.30;1.75;;;;;;;13.48;74.38;99107.34;4236936;27;20027;-71
2022/09/01 00:06:58;;;;;;;2.00;1.50;;;;;;;13.41;74.92;99116.44;4237079;27;20035;-71
2022/09/01 00:09:05;;;;;;;2.28;1.70;;;;;;;13.34;75.06;99116.34;4236074;27;20145;-71
2022/09/01 00:11:05;;;;;;;5.05;1.63;;;;;;;13.25;75.18;99118.66;4237297;27;20247;-71
2022/09/01 00:13:06;;;;;;;3.60;1.60;;;;;;;13.21;75.29;99112.22;4218448;28;20093;-71
2022/09/01 00:15:08;;;;;;;3.40;1.60;;;;;;;13.17;75.52;99117.72;4236098;27;20055;-72
2022/09/01 00:17:10;;;;;;;1.75;1.40;;;;;;;13.08;75.98;99116.44;4237095;27;20055;-72
2022/09/01 00:19:11;;;;;;;2.70;1.60;;;;;;;13.00;76.09;99109.19;4236850;27;20035;-71
2022/09/01 00:21:12;;;;;;;1.92;1.60;;;;;;;12.95;76.12;99115.88;4236787;27;20049;-71
2022/09/01 00:23:12;;;;;;;2.25;1.50;;;;;;;12.87;76.74;99116.97;4236548;27;20063;-71
2022/09/01 00:25:13;;;;;;;2.60;1.67;;;;;;;12.82;76.45;99123.63;4236437;27;20600;-72
2022/09/01 00:27:13;;;;;;;3.28;1.70;;;;;;;12.78;76.23;99113.69;4236894;27;20047;-71
2022/09/01 00:29:15;;;;;;;4.20;2.55;;;;;;;12.71;76.41;99114.38;4235697;27;20129;-71
2022/09/01 00:31:17;;;;;;;3.28;1.60;;;;;;;12.65;75.87;99119.44;4236355;27;20548;-71
2022/09/01 00:33:18;;;;;;;;;;;;;;;12.60;76.36;99119.00;4236244;27;20113;-71
2022/09/01 00:35:19;;;;;;;1.90;1.33;;;;;;;12.56;76.56;99123.69;4235994;27;19915;-71
2022/09/01 00:37:19;;;;;;;1.73;1.25;;;;;;;12.51;76.74;99130.38;4236755;27;20043;-71
2022/09/01 00:39:20;;;;;;;2.17;1.50;;;;;;;12.45;76.23;99114.44;4234722;27;20160;-71
2022/09/01 00:41:24;;;;;;;3.03;1.73;;;;;;;12.43;75.32;99125.09;4236557;27;20043;-71
2022/09/01 00:43:41;;;;;;;1.88;1.42;;;;;;;12.42;74.94;99127.09;4236294;27;20390;-71
2022/09/01 00:45:41;;;;;;;2.15;1.40;;;;;;;12.39;74.30;99122.25;4234781;27;20051;-71
2022/09/01 00:47:42;;;;;;;2.22;1.30;;;;;;;12.38;74.75;99121.47;4236545;27;20215;-71
2022/09/01 00:49:48;;;;;;;3.50;1.95;;;;;;;12.38;74.43;99117.91;4235768;27;20091;-71
2022/09/01 00:51:54;;;;;;;2.00;1.50;;;;;;;12.27;74.17;99123.28;4236143;27;20043;-71
2022/09/01 00:53:57;;;;;;;4.00;1.50;;;;;;;12.23;74.19;99119.66;4236282;27;20040;-71
2022/09/01 00:55:58;;;;;;;2.33;1.23;;;;;;;12.21;74.26;99121.22;4235839;27;20039;-71
2022/09/01 00:58:00;;;;;;;1.92;1.50;;;;;;;12.17;75.40;99117.59;4235884;27;20510;-71
2022/09/01 01:00:05;;;;;;;;;;;;;;;12.15;75.20;99115.16;4235308;27;20047;-71
2022/09/01 01:02:05;;;;;;;5.53;1.45;;;;;;;12.11;75.10;99121.84;4236283;27;19918;-71
2022/09/01 01:04:13;;;;;;;3.72;1.38;;;;;;;12.06;75.13;99120.19;4235936;27;20474;-71
2022/09/01 01:06:15;;;;;;;1.98;1.35;;;;;;;12.06;75.22;99112.66;4235943;27;20466;-71
2022/09/01 01:08:20;;;;;;;1.92;1.50;;;;;;;12.03;75.49;99118.97;4235997;27;20031;-71
2022/09/01 01:10:21;;;;;;;1.70;1.30;;;;;;;11.99;75.13;99114.53;4236049;27;20421;-71
2022/09/01 01:12:22;;;;;;;3.40;1.40;;;;;;;11.95;75.56;99124.75;4236250;27;20297;-71
2022/09/01 01:14:23;;;;;;;2.03;1.50;;;;;;;11.90;74.82;99120.31;4234854;27;20047;-71
2022/09/01 01:16:26;;;;;;;4.05;1.75;;;;;;;11.82;75.25;99126.91;4235287;27;20043;-71
2022/09/01 01:18:26;;;;;;;2.92;1.63;;;;;;;11.72;75.98;99131.09;4235197;27;20035;-71
2022/09/01 01:23:02;;;;;;;1.90;1.38;;;;;;;11.56;77.04;99130.41;4235957;27;20034;-71
2022/09/01 01:25:03;;;;;;;1.75;1.17;;;;;;;11.45;77.28;99119.13;4234994;28;20334;-71
2022/09/01 01:27:04;;;;;;;2.28;1.40;;;;;;;11.40;77.45;99121.41;4234720;28;20054;-71
2022/09/01 01:29:05;;;;;;;3.63;1.95;;;;;;;11.36;77.97;99120.53;4234472;28;20548;-71
2022/09/01 01:31:11;;;;;;;2.97;1.55;;;;;;;11.31;78.84;99124.41;4235599;28;20044;-71
2022/09/01 01:33:11;;;;;;;1.88;1.27;;;;;;;11.27;79.30;99111.66;4235756;28;20068;-71
2022/09/01 01:35:14;;;;;;;2.22;1.58;;;;;;;11.28;78.38;99127.13;4235514;28;20180;-71
2022/09/01 01:37:15;;;;;;;2.10;1.50;;;;;;;11.21;78.51;99116.69;4235985;27;20035;-71
2022/09/01 01:39:24;;;;;;;2.13;1.35;;;;;;;11.13;79.11;99112.19;4235082;28;20403;-71
2022/09/01 01:41:24;;;;;;;2.15;1.52;;;;;;;11.07;79.72;99119.97;4235021;28;20043;-71
2022/09/01 01:43:26;;;;;;;3.17;2.03;;;;;;;11.05;80.15;99124.28;4234876;28;20428;-71
2022/09/01 01:45:27;;;;;;;4.13;1.80;;;;;;;10.97;80.11;99121.38;4235486;28;20074;-71
2022/09/01 01:47:27;;;;;;;3.25;1.30;;;;;;;10.93;80.46;99119.72;4235435;28;20074;-71
2022/09/01 01:49:29;;;;;;;6.15;2.05;;;;;;;10.85;80.33;99120.75;4235032;28;20050;-71
2022/09/01 01:51:31;;;;;;;1.48;1.38;;;;;;;10.79;80.12;99124.97;4235840;28;20546;-71
2022/09/01 01:53:32;;;;;;;3.70;1.40;;;;;;;10.75;80.63;99129.59;4235626;28;20046;-71
2022/09/01 01:55:33;;;;;;;2.90;1.60;;;;;;;10.74;80.72;99122.47;4235664;28;20762;-71
2022/09/01 01:57:34;;;;;;;4.35;1.70;;;;;;;10.74;80.10;99114.97;4235539;28;20082;-71
2022/09/01 01:59:34;;;;;;;3.90;1.90;;;;;;;10.69;80.60;99118.84;4235153;28;20054;-71
2022/09/01 02:01:35;;;;;;;2.08;1.40;;;;;;;10.66;80.84;99125.09;4235593;28;20039;-71
2022/09/01 02:03:37;;;;;;;1.88;1.65;;;;;;;10.63;81.10;99125.81;4234963;28;20096;-71
2022/09/01 02:05:38;;;;;;;2.40;1.48;;;;;;;10.67;80.22;99123.13;4235233;28;20466;-71
2022/09/01 02:07:41;;;;;;;4.25;1.55;;;;;;;10.61;80.33;99122.63;4237268;27;20050;-71
2022/09/01 02:09:45;;;;;;;3.53;1.63;;;;;;;10.50;81.55;99116.03;4238407;27;20379;-71
2022/09/01 02:11:45;;;;;;;2.00;1.48;;;;;;;10.46;82.05;99122.66;4238140;27;20394;-71
2022/09/01 02:13:46;;;;;;;1.90;1.70;;;;;;;10.36;82.63;99118.50;4238360;27;20043;-71
2022/09/01 02:15:52;;;;;;;5.85;1.65;;;;;;;10.31;82.59;99124.31;4238726;27;20055;-71
2022/09/01 02:17:59;;;;;;;1.45;1.30;;;;;;;10.26;82.65;99114.34;4238884;27;20879;-71
2022/09/01 02:19:59;;;;;;;2.85;1.55;;;;;;;10.18;83.18;99118.06;4238325;27;20086;-71
2022/09/01 02:22:00;;;;;;;1.83;1.60;;;;;;;10.12;83.48;99120.31;4238345;27;20495;-71
2022/09/01 02:24:07;;;;;;;2.55;1.55;;;;;;;10.04;83.73;99115.78;4237866;27;20079;-71
2022/09/01 02:26:10;;;;;;;2.70;1.30;;;;;;;10.02;83.56;99112.56;4236937;27;20039;-71
2022/09/01 02:28:14;;;;;;;5.25;1.45;;;;;;;9.99;83.36;99110.50;4238540;27;20084;-71
2022/09/01 02:30:15;;;;;;;2.67;1.30;;;;;;;9.95;83.59;99108.81;4237972;27;20401;-71
2022/09/01 02:32:20;;;;;;;2.78;1.48;;;;;;;9.91;83.36;99105.97;4238847;27;20058;-71
2022/09/01 02:34:23;;;;;;;5.43;2.17;;;;;;;9.90;83.21;99107.13;4237811;27;20070;-71
2022/09/01 02:36:24;;;;;;;3.40;2.45;;;;;;;9.90;83.08;99111.84;4238647;27;20079;-71
2022/09/01 02:38:28;;;;;;;3.58;1.60;;;;;;;9.87;83.19;99104.28;4237751;27;20043;-71
2022/09/01 02:40:29;;;;;;;3.05;1.30;;;;;;;9.87;83.03;99107.84;4238074;27;20421;-71
2022/09/01 02:42:29;;;;;;;2.28;1.70;;;;;;;9.84;82.88;99114.06;4238444;27;20035;-70
2022/09/01 02:44:30;;;;;;;2.58;1.45;;;;;;;9.82;83.03;99108.91;4238144;27;20475;-71
2022/09/01 02:46:31;;;;;;;3.20;1.60;;;;;;;9.80;82.78;99107.69;4237706;27;20376;-71
2022/09/01 02:48:36;;;;;;;2.45;1.48;;;;;;;9.76;83.50;99102.06;4237834;27;20420;-71
2022/09/01 02:50:37;;;;;;;2.08;1.55;;;;;;;9.75;84.28;99103.22;4237978;27;20039;-71
2022/09/01 02:52:39;;;;;;;2.15;1.33;;;;;;;9.69;84.10;99101.91;4238408;27;20118;-71
2022/09/01 02:54:39;;;;;;;2.80;1.60;;;;;;;9.64;84.73;99095.81;4237670;27;20294;-71
2022/09/01 02:56:39;;;;;;;4.57;1.88;;;;;;;9.61;84.73;99097.34;4238189;27;20547;-71
2022/09/01 02:58:45;;;;;;;3.30;1.73;;;;;;;9.61;83.79;99099.31;4237588;27;20214;-71
2022/09/01 03:00:52;;;;;;;4.25;1.70;;;;;;;9.53;84.61;99093.59;4237929;27;20162;-71
2022/09/01 03:02:57;;;;;;;6.90;1.88;;;;;;;9.54;84.84;99094.41;4237926;27;20112;-71
2022/09/01 03:04:58;;;;;;;3.58;1.88;;;;;;;9.52;84.98;99102.25;4237579;27;20067;-71
2022/09/01 03:06:59;;;;;;;4.25;1.88;;;;;;;9.51;84.54;99101.41;4237620;27;20040;-71
2022/09/01 03:08:59;;;;;;;3.78;1.65;;;;;;;9.48;84.77;99099.38;4237024;27;20051;-71
2022/09/01 03:11:00;;;;;;;2.55;1.55;;;;;;;9.45;85.63;99107.59;4237587;27;20039;-71
2022/09/01 03:13:05;;;;;;;2.60;1.50;;;;;;;9.42;85.46;99100.78;4237880;27;20291;-71
2022/09/01 03:15:06;;;;;;;3.28;1.70;;;;;;;9.41;85.45;99098.38;4236815;27;20035;-71
2022/09/01 03:17:06;;;;;;;4.47;1.80;;;;;;;9.41;85.12;99107.47;4237884;27;20104;-71
2022/09/01 03:19:08;;;;;;;3.55;1.70;;;;;;;9.39;84.27;99104.28;4237394;27;20051;-71
2022/09/01 03:21:13;;;;;;;12.02;2.25;;;;;;;9.38;84.88;99110.97;4237800;27;20074;-71
2022/09/01 03:23:17;;;;;;;1.70;1.50;;;;;;;9.35;85.88;99103.41;4237656;27;20043;-71
2022/09/01 03:25:18;;;;;;;3.78;1.65;;;;;;;9.31;86.06;99108.00;4236739;27;20047;-71
2022/09/01 03:27:18;;;;;;;1.80;1.60;;;;;;;9.27;86.45;99109.88;4237602;27;20055;-71
2022/09/01 03:29:19;;;;;;;3.08;1.83;;;;;;;9.24;86.40;99110.56;4237223;27;20035;-70
2022/09/01 03:31:20;;;;;;;2.13;1.70;;;;;;;9.21;86.61;99116.81;4237093;27;20247;-70
2022/09/01 03:33:22;;;;;;;4.47;1.65;;;;;;;9.19;85.00;99108.91;4237502;27;20616;-71
2022/09/01 03:35:24;;;;;;;3.45;1.95;;;;;;;9.14;85.91;99117.41;4237274;27;20043;-71
2022/09/01 03:37:25;;;;;;;4.90;2.30;;;;;;;9.08;86.75;99107.78;4237638;27;20129;-71
2022/09/01 03:39:26;;;;;;;5.85;1.83;;;;;;;9.00;87.13;99115.06;4236635;27;20079;-71
2022/09/01 03:41:29;;;;;;;3.40;1.85;;;;;;;8.93;87.43;99112.09;4236325;27;20411;-71
2022/09/01 03:43:31;;;;;;;2.72;1.75;;;;;;;8.88;87.25;99122.59;4237164;27;20754;-71
2022/09/01 03:45:37;;;;;;;8.98;2.42;;;;;;;8.81;87.95;99120.44;4236796;27;20082;-71
2022/09/01 03:47:41;;;;;;;4.43;2.00;;;;;;;8.76;87.96;99126.19;4237217;27;20055;-71
2022/09/01 03:49:42;;;;;;;4.55;1.98;;;;;;;8.72;87.68;99125.31;4233882;27;20063;-71
2022/09/01 03:51:43;;;;;;;3.25;1.70;;;;;;;8.71;87.52;99118.97;4236272;27;20095;-71
2022/09/01 03:53:44;;;;;;;8.05;1.92;;;;;;;8.69;86.62;99110.25;4236914;27;20051;-70
2022/09/01 03:55:46;;;;;;;3.67;1.83;;;;;;;8.68;87.18;99121.63;4237027;27;20650;-70
2022/09/01 03:57:47;;;;;;;3.10;1.70;;;;;;;8.63;87.69;99106.13;4236231;27;20126;-71
2022/09/01 03:59:48;;;;;;;3.60;1.50;;;;;;;8.68;87.22;99114.16;4236822;27;20083;-71
2022/09/01 04:01:48;;;;;;;4.70;1.73;;;;;;;8.66;86.68;99116.47;4236560;27;20069;-71
2022/09/01 04:03:50;;;;;;;3.42;1.50;;;;;;;8.65;87.42;99114.84;4235338;27;20122;-71
2022/09/01 04:05:51;;;;;;;3.67;2.40;;;;;;;8.66;87.39;99112.91;4236494;27;20187;-71
2022/09/01 04:07:52;;;;;;;3.80;2.40;;;;;;;8.69;88.46;99112.22;4236331;27;20150;-71
2022/09/01 04:09:52;;;;;;;3.40;2.00;;;;;;;8.70;88.63;99111.06;4235699;27;20089;-71
2022/09/01 04:11:53;;;;;;;6.53;2.50;;;;;;;8.73;88.62;99115.88;4236256;27;20116;-71
2022/09/01 04:13:53;;;;;;;4.38;2.53;;;;;;;8.67;89.03;99117.25;4236559;27;20077;-69
2022/09/01 04:15:55;;;;;;;6.22;2.38;;;;;;;8.62;89.10;99107.28;4236357;27;20054;-69
2022/09/01 04:18:08;;;;;;;3.40;1.90;;;;;;;8.62;88.39;99110.06;4236531;27;20055;-69
2022/09/01 04:20:09;;;;;;;6.60;2.17;;;;;;;8.62;88.11;99114.78;4236262;27;20047;-69
2022/09/01 04:22:13;;;;;;;4.63;2.00;;;;;;;8.56;87.85;99113.41;4236316;27;20076;-71
2022/09/01 04:24:14;;;;;;;6.03;2.03;;;;;;;8.52;87.78;99118.78;4235853;27;20543;-70
2022/09/01 04:26:19;;;;;;;4.13;2.22;;;;;;;8.48;87.11;99112.38;4236320;27;20033;-70
2022/09/01 04:28:23;;;;;;;2.22;1.88;;;;;;;8.46;86.88;99114.69;4235790;27;20054;-70
2022/09/01 04:30:25;;;;;;;3.05;1.80;;;;;;;8.41;87.28;99112.97;4236232;27;20043;-70
2022/09/01 04:32:26;;;;;;;4.65;2.50;;;;;;;8.37;86.84;99114.81;4236682;27;20338;-70
2022/09/01 04:34:29;;;;;;;4.10;1.77;;;;;;;8.36;87.29;99112.44;4235907;27;20039;-70
2022/09/01 04:36:32;;;;;;;5.60;2.22;;;;;;;8.30;87.67;99119.28;4236284;27;20477;-70
2022/09/01 04:38:35;;;;;;;3.80;2.35;;;;;;;8.28;87.71;99111.38;4235300;27;20051;-70
2022/09/01 04:40:38;;;;;;;2.40;1.88;;;;;;;8.23;87.62;99111.59;4236239;27;20047;-70
2022/09/01 04:42:40;;;;;;;6.30;2.13;;;;;;;8.21;88.06;99113.91;4236109;27;20459;-70
2022/09/01 04:44:41;;;;;;;4.38;2.70;;;;;;;8.23;88.63;99122.63;4232731;27;20039;-70
2022/09/01 04:46:45;;;;;;;7.10;2.75;;;;;;;8.22;88.28;99126.53;4235034;27;20035;-70
2022/09/01 04:48:46;;;;;;;4.78;2.47;;;;;;;8.15;89.14;99118.84;4236049;27;20039;-70
2022/09/01 04:50:50;;;;;;;4.43;2.80;;;;;;;8.14;89.72;99127.47;4235227;27;20051;-70
2022/09/01 04:52:53;;;;;;;3.58;2.75;;;;;;;8.11;89.84;99128.97;4233792;27;20066;-70
2022/09/01 04:54:53;;;;;;;4.68;2.42;;;;;;;8.13;89.96;99126.66;4234192;27;20050;-70
2022/09/01 04:56:53;;;;;;;4.05;2.60;;;;;;;8.11;90.12;99115.19;4235568;27;20448;-70
2022/09/01 04:58:54;;;;;;;4.20;2.92;;;;;;;8.11;89.67;99125.41;4235976;27;20343;-70
2022/09/01 05:00:55;;;;;;;4.22;2.97;;;;;;;8.13;90.07;99118.38;4233994;27;20436;-70
2022/09/01 05:03:03;;;;;;;4.30;2.83;;;;;;;8.14;89.92;99124.72;4235761;27;20245;-70
2022/09/01 05:05:07;;;;;;;5.43;2.55;;;;;;;8.16;90.20;99131.47;4235057;27;20146;-70
2022/09/01 05:07:07;;;;;;;5.10;2.80;;;;;;;8.23;89.62;99128.13;4173464;27;20058;-70
2022/09/01 05:09:10;;;;;;;6.45;3.28;;;;;;;8.25;90.29;99125.03;4235611;27;20043;-70
2022/09/01 05:11:16;;;;;;;4.50;2.70;;;;;;;8.28;90.58;99125.16;4235059;27;20047;-70
2022/09/01 05:13:18;;;;;;;7.30;3.20;;;;;;;8.30;90.92;99130.31;4235683;27;20123;-70
2022/09/01 05:15:19;;;;;;;4.50;2.92;;;;;;;8.32;91.16;99126.06;4235128;27;20054;-70
2022/09/01 05:17:20;;;;;;;3.78;2.80;;;;;;;8.34;91.24;99123.75;4235890;27;20047;-70
2022/09/01 05:19:23;;;;;;;6.95;3.05;;;;;;;8.32;91.67;99136.28;4235367;27;20441;-70
2022/09/01 05:21:27;;;;;;;7.68;2.70;;;;;;;8.31;91.39;99138.22;4235184;27;21016;-70
2022/09/01 05:23:30;;;;;;;4.50;2.75;;;;;;;8.29;90.86;99136.97;4235705;27;20055;-70
2022/09/01 05:25:37;;;;;;;4.13;2.45;;;;;;;8.28;89.77;99133.44;4230542;27;20090;-70
2022/09/01 05:27:40;;;;;;;5.72;3.20;;;;;;;8.25;89.87;99131.34;4233256;28;20050;-70
2022/09/01 05:29:41;;;;;;;4.05;3.22;;;;;;;8.20;90.35;99139.88;4235095;28;20155;-70
2022/09/01 05:31:43;;;;;;;4.20;2.95;;;;;;;8.18;90.33;99142.94;4232037;28;20073;-70
2022/09/01 05:33:44;;;;;;;4.55;2.60;;;;;;;8.13;90.21;99136.88;4234346;28;20031;-70
2022/09/01 05:35:54;;;;;;;6.45;2.70;;;;;;;8.16;90.12;99144.44;4233524;28;20048;-70
2022/09/01 05:37:55;;;;;;;5.53;3.40;;;;;;;8.17;90.74;99146.84;4234985;28;20092;-69
2022/09/01 05:39:55;;;;;;;8.43;3.58;;;;;;;8.18;90.66;99145.69;4235941;28;20050;-70
2022/09/01 05:41:57;;;;;;;3.80;2.72;;;;;;;8.21;90.25;99140.66;4236352;27;20483;-70
2022/09/01 05:43:58;;;;;;;7.93;2.90;;;;;;;8.22;90.28;99134.81;4240182;27;20277;-70
2022/09/01 05:46:03;;;;;;;5.78;3.17;;;;;;;8.25;90.56;99139.63;4239780;27;20443;-70
2022/09/01 05:48:04;;;;;;;5.18;2.78;;;;;;;8.31;89.95;99149.25;4239276;27;20447;-70
2022/09/01 05:50:07;;;;;;;4.47;3.53;;;;;;;8.37;89.30;99152.63;4238962;27;20027;-70
2022/09/01 05:52:08;;;;;;;4.75;3.38;;;;;;;8.40;90.23;99146.41;4239466;27;20035;-70
2022/09/01 05:54:10;;;;;;;6.47;3.42;;;;;;;8.43;90.95;99140.19;4239952;27;20428;-70
2022/09/01 05:56:12;;;;;;;;;;;;;;;8.42;91.40;99144.91;4240027;27;20054;-70
2022/09/01 05:58:15;;;;;;;4.28;2.92;;;;;;;8.42;91.36;99149.63;4239480;27;19911;-70
2022/09/01 06:00:16;;;;;;;6.75;3.78;;;;;;;8.44;91.68;99137.09;4238908;27;20035;-70
2022/09/01 06:02:17;;;;;;;4.65;3.28;;;;;;;8.46;91.71;99145.03;4239882;27;20070;-70
2022/09/01 06:04:17;;;;;;;4.05;3.60;;;;;;;8.51;91.86;99149.47;4239010;27;20058;-70
2022/09/01 06:06:18;;;;;;;7.88;4.07;;;;;;;8.52;91.74;99149.13;4239316;27;20023;-70
2022/09/01 06:08:21;;;;;;;3.53;3.00;;;;;;;8.60;91.90;99144.63;4239294;27;20166;-70
2022/09/01 06:10:22;;;;;;;6.65;3.70;;;;;;;8.71;90.96;99156.81;4239991;27;20104;-70
2022/09/01 06:12:23;;;;;;;4.53;3.60;;;;;;;8.82;90.31;99157.13;4239170;27;20107;-70
2022/09/01 06:14:24;;;;;;;5.32;3.60;;;;;;;8.88;89.99;99151.00;4239225;27;20118;-70
2022/09/01 06:16:25;;;;;;;6.25;3.60;;;;;;;9.05;87.65;99162.91;4239971;27;20084;-70
2022/09/01 06:18:26;;;;;;;6.00;3.38;;;;;;;9.21;87.01;99152.72;4237326;27;20129;-70
2022/09/01 06:20:28;;;;;;;5.90;4.50;;;;;;;9.37;86.01;99155.50;4221195;28;20154;-70
2022/09/01 06:22:29;;;;;;;3.83;3.30;;;;;;;9.49;86.26;99158.19;4239313;27;20043;-70
2022/09/01 06:24:29;;;;;;;9.05;3.47;;;;;;;9.58;86.20;99148.56;4240184;27;20043;-70
2022/09/01 06:26:33;;;;;;;5.90;3.20;;;;;;;9.71;85.83;99151.28;4238875;27;20046;-70
2022/09/01 06:28:34;;;;;;;8.48;3.53;;;;;;;9.82;85.65;99160.63;4238371;27;20428;-70
2022/09/01 06:30:35;;;;;;;6.53;4.05;;;;;;;9.94;85.81;99155.03;4238841;27;20051;-70
2022/09/01 06:32:37;;;;;;;7.10;3.58;;;;;;;10.02;85.15;99151.28;4239218;27;20126;-70
2022/09/01 06:34:41;;;;;;;4.05;3.50;;;;;;;10.13;85.02;99146.00;4238563;27;20073;-70
2022/09/01 06:36:42;;;;;;;4.10;3.45;;;;;;;10.24;84.24;99146.25;4238604;27;20046;-70
2022/09/01 06:38:42;;;;;;;3.42;2.88;;;;;;;10.33;84.38;99155.16;4237249;28;20304;-70
2022/09/01 06:40:43;;;;;;;5.25;3.35;;;;;;;10.41;84.35;99154.97;4238397;28;20047;-70
2022/09/01 06:42:46;;;;;;;4.78;2.90;;;;;;;10.50;84.24;99152.00;4237776;28;20404;-70
2022/09/01 06:44:46;;;;;;;3.83;3.40;;;;;;;10.60;84.13;99150.66;4237672;28;20116;-70
2022/09/01 06:46:48;;;;;;;3.60;2.90;;;;;;;10.71;83.59;99157.22;4219575;28;20146;-70
2022/09/01 06:48:48;;;;;;;6.60;3.23;;;;;;;10.80;83.24;99162.53;4236834;28;20046;-70
2022/09/01 06:50:50;;;;;;;5.57;3.50;;;;;;;10.89;83.21;99165.91;4237902;28;20616;-70
2022/09/01 06:53:02;;;;;;;6.03;3.30;;;;;;;10.97;82.90;99162.91;4237343;27;20133;-70
2022/09/01 06:55:03;;;;;;;4.25;3.15;;;;;;;11.09;82.77;99169.47;4238061;28;20834;-70
2022/09/01 06:57:04;;;;;;;3.92;3.35;;;;;;;11.17;82.66;99169.28;4237867;28;20164;-70
2022/09/01 06:59:06;;;;;;;9.35;4.53;;;;;;;11.25;82.52;99171.00;4237300;28;20078;-70
2022/09/01 07:01:14;;;;;;;3.50;3.20;;;;;;;11.37;82.31;99172.81;4238091;28;20418;-70
2022/09/01 07:03:16;;;;;;;6.47;3.50;;;;;;;11.45;82.38;99177.31;4236751;28;20045;-70
2022/09/01 07:05:17;;;;;;;3.83;2.80;;;;;;;11.48;82.18;99170.25;4237650;28;20130;-70
2022/09/01 07:07:18;;;;;;;4.78;3.45;;;;;;;11.57;82.29;99170.81;4237585;28;20328;-70
2022/09/01 07:09:18;;;;;;;4.57;4.07;;;;;;;11.63;82.54;99172.09;4218581;28;20044;-70
2022/09/01 07:11:26;;;;;;;4.65;3.45;;;;;;;11.68;81.99;99169.03;4237961;28;20039;-70
2022/09/01 07:13:26;;;;;;;5.10;3.35;;;;;;;11.73;82.09;99162.38;4237574;28;20043;-70
2022/09/01 07:15:31;;;;;;;3.55;3.00;;;;;;;11.79;81.69;99170.03;4237433;28;20058;-70
2022/09/01 07:17:31;;;;;;;4.53;3.30;;;;;;;11.79;81.66;99158.13;4237430;28;20744;-70
2022/09/01 07:19:34;;;;;;;4.05;3.30;;;;;;;11.81;81.49;99162.16;4236804;28;20044;-70
2022/09/01 07:21:34;;;;;;;4.20;3.30;;;;;;;11.79;81.33;99167.25;4237301;28;20121;-70
2022/09/01 07:23:35;;;;;;;6.65;3.60;;;;;;;11.89;81.90;99173.38;4237308;28;20043;-70
2022/09/01 07:25:42;;;;;;;6.85;3.15;;;;;;;12.05;81.27;99168.50;4237398;28;20098;-69
2022/09/01 07:27:49;;;;;;;5.70;3.47;;;;;;;12.14;81.23;99169.06;4237395;28;20502;-70
2022/09/01 07:29:52;;;;;;;4.40;3.58;;;;;;;12.23;80.05;99164.03;4236588;28;20367;-70
2022/09/01 07:31:54;;;;;;;4.20;3.30;;;;;;;12.32;79.87;99172.91;4236931;28;20031;-70
2022/09/01 07:33:57;;;;;;;4.75;3.60;;;;;;;12.38;79.33;99171.41;4237561;28;20428;-70
2022/09/01 07:35:58;;;;;;;5.63;3.30;;;;;;;12.43;79.26;99164.75;4199068;27;1105681;-70
2022/09/01 07:37:58;;;;;;;3.25;2.78;;;;;;;12.51;78.77;99169.25;4238130;27;20490;-70
2022/09/01 07:39:58;;;;;;;4.88;3.15;;;;;;;12.65;79.24;99166.66;4237751;27;20138;-69
2022/09/01 07:41:59;;;;;;;5.50;3.08;;;;;;;12.74;77.79;99168.34;4238399;27;20074;-70
2022/09/01 07:44:01;;;;;;;5.43;3.67;;;;;;;12.82;77.66;99165.28;4237746;27;20043;-70
2022/09/01 07:46:04;;;;;;;4.38;3.10;;;;;;;12.90;77.26;99167.00;4237068;27;20038;-71
2022/09/01 07:48:06;;;;;;;6.32;3.88;;;;;;;12.98;77.04;99167.88;4237880;27;20031;-70
2022/09/01 07:50:09;;;;;;;4.53;3.05;;;;;;;13.17;76.15;99173.31;4237718;27;20027;-70
2022/09/01 07:52:10;;;;;;;5.53;3.08;;;;;;;13.29;77.13;99163.13;4237650;27;20489;-70
2022/09/01 07:54:12;;;;;;;4.72;3.30;;;;;;;13.34;76.14;99171.94;4237585;27;20063;-70
2022/09/01 07:56:15;;;;;;;5.20;3.50;;;;;;;13.40;76.40;99175.16;4237747;27;20047;-70
2022/09/01 07:58:16;;;;;;;3.70;3.33;;;;;;;13.46;76.09;99168.88;4237471;27;20074;-70
2022/09/01 08:00:17;;;;;;;3.90;2.80;;;;;;;13.54;75.15;99171.75;4237183;27;20045;-70
2022/09/01 08:02:17;;;;;;;3.60;2.70;;;;;;;13.61;75.23;99171.81;4237360;27;20027;-70
2022/09/01 08:04:21;;;;;;;5.45;3.67;;;;;;;13.68;75.11;99163.56;4236732;27;20080;-70
2022/09/01 08:06:25;;;;;;;5.57;3.97;;;;;;;13.73;74.52;99177.91;4237364;27;20437;-70
2022/09/01 08:08:26;;;;;;;4.15;3.00;;;;;;;13.72;74.04;99170.75;4237348;27;20043;-70
2022/09/01 08:10:26;;;;;;;4.38;3.58;;;;;;;13.76;75.10;99168.81;4237461;27;20068;-70
2022/09/01 08:12:26;;;;;;;5.13;3.30;;;;;;;13.87;74.02;99177.25;4237697;27;20130;-70
2022/09/01 08:14:27;;;;;;;4.53;3.20;;;;;;;13.95;73.70;99176.13;4237272;27;20488;-70
2022/09/01 08:16:29;;;;;;;4.35;3.95;;;;;;;14.01;73.16;99174.59;4237662;27;20051;-70
2022/09/01 08:18:30;;;;;;;4.28;3.08;;;;;;;14.01;73.54;99165.47;4236530;27;20091;-70
2022/09/01 08:20:33;;;;;;;4.40;3.47;;;;;;;14.10;72.79;99170.69;4237247;27;20467;-70
2022/09/01 08:22:36;;;;;;;4.93;3.10;;;;;;;14.17;73.86;99179.09;4237430;27;20118;-70
2022/09/01 08:24:37;;;;;;;6.22;3.20;;;;;;;14.20;72.77;99167.19;4236626;27;20039;-70
2022/09/01 08:26:37;;;;;;;5.38;3.35;;;;;;;14.25;72.43;99184.34;4237010;27;20467;-70
2022/09/01 08:28:38;;;;;;;3.45;2.90;;;;;;;14.28;72.20;99175.22;4236481;27;20578;-70
2022/09/01 08:30:41;;;;;;;4.75;3.00;;;;;;;14.32;72.02;99180.81;4237107;27;20043;-70
2022/09/01 08:32:41;;;;;;;;;;;;;;;14.38;71.71;99175.69;4237902;27;20068;-70
2022/09/01 08:34:42;;;;;;;4.80;3.33;;;;;;;14.45;72.28;99175.72;4236805;27;20378;-70
2022/09/01 08:36:42;;;;;;;6.85;3.13;;;;;;;14.54;71.43;99176.22;4236173;27;20520;-70
2022/09/01 08:38:43;;;;;;;5.32;3.05;;;;;;;14.61;71.24;99179.06;4236840;27;20083;-70
2022/09/01 08:40:53;;;;;;;5.50;3.00;;;;;;;14.69;70.96;99177.91;4236919;27;20039;-70
2022/09/01 08:43:00;;;;;;;4.38;2.50;;;;;;;14.78;70.39;99175.56;4235705;27;20157;-70
2022/09/01 08:45:14;;;;;;;5.43;2.65;;;;;;;14.87;69.74;99181.59;4236846;27;20353;-70
2022/09/01 08:47:18;;;;;;;7.07;3.10;;;;;;;15.03;70.13;99175.72;4236978;27;20135;-70
2022/09/01 08:49:21;;;;;;;4.15;2.92;;;;;;;15.08;69.05;99178.13;4236774;27;20493;-70
2022/09/01 08:51:46;;;;;;;6.35;2.90;;;;;;;15.12;68.40;99176.16;4236873;27;20388;-70
2022/09/01 08:53:58;;;;;;;6.25;2.85;;;;;;;15.25;69.26;99170.25;4236414;27;20390;-70
2022/09/01 08:55:59;;;;;;;3.10;2.80;;;;;;;15.31;68.83;99163.09;4237160;27;20343;-71
2022/09/01 08:58:00;;;;;;;7.40;2.90;;;;;;;15.35;68.15;99169.47;4236472;27;20049;-70
2022/09/01 09:00:01;;;;;;;6.75;2.95;;;;;;;15.41;67.93;99163.13;4235790;27;20046;-70
2022/09/01 09:02:22;;;;;;;3.97;2.88;;;;;;;15.56;68.92;99172.34;4236643;27;20173;-70
2022/09/01 09:04:58;;;;;;;3.72;2.90;;;;;;;15.77;67.71;99179.97;4236828;27;20070;-70
2022/09/01 09:07:09;;;;;;;5.03;2.90;;;;;;;15.94;66.99;99179.19;4236604;27;20364;-71
2022/09/01 09:09:10;;;;;;;4.25;2.78;;;;;;;16.00;66.51;99185.97;4236542;27;20100;-70
2022/09/01 09:11:16;;;;;;;4.57;2.78;;;;;;;16.04;66.25;99177.59;4236829;27;20047;-71
2022/09/01 09:13:59;;;;;;;4.20;2.92;;;;;;;16.08;65.40;99174.81;4236681;27;20126;-70
2022/09/01 09:16:15;;;;;;;4.30;2.55;;;;;;;16.08;66.22;99175.63;4196852;27;20558;-70
2022/09/01 09:18:24;;;;;;;2.78;2.38;;;;;;;16.15;66.62;99167.25;4236109;27;20043;-71
2022/09/01 09:20:27;;;;;;;5.78;2.70;;;;;;;16.27;65.65;99177.22;4236425;27;20042;-71
2022/09/01 09:22:27;;;;;;;4.35;2.60;;;;;;;16.32;65.16;99168.44;4236326;27;20424;-70
2022/09/01 09:24:59;;;;;;;4.20;2.25;;;;;;;16.40;65.71;99169.25;4236900;27;20080;-71
2022/09/01 09:27:01;;;;;;;6.45;2.55;;;;;;;16.55;64.60;99168.81;4236070;28;20555;-71
2022/09/01 09:29:01;;;;;;;5.22;2.60;;;;;;;16.63;63.34;99164.00;4217385;28;20546;-71
2022/09/01 09:31:27;;;;;;;4.70;2.50;;;;;;;16.73;63.91;99163.22;4236674;28;20058;-71
2022/09/01 09:33:37;;;;;;;3.97;2.10;;;;;;;16.81;63.23;99150.84;4235719;28;20035;-71
2022/09/01 09:35:44;;;;;;;4.30;2.50;;;;;;;16.87;62.79;99154.00;4236245;28;20260;-71
2022/09/01 09:37:44;;;;;;;3.42;2.78;;;;;;;17.02;62.66;99149.94;4237270;27;20043;-71
2022/09/01 09:40:19;;;;;;;7.60;2.80;;;;;;;17.18;61.84;99155.06;4235803;28;20363;-70
2022/09/01 09:42:19;;;;;;;5.18;2.55;;;;;;;17.21;61.05;99142.28;4235018;28;21104;-71
2022/09/01 09:44:26;;;;;;;2.30;2.10;;;;;;;17.34;61.54;99138.63;4236026;28;20023;-71